Time,TemperatureF,DewpointF,PressureIn,WindDirection,WindDirectionDegrees,WindSpeedMPH,WindSpeedGustMPH,Humidity,HourlyPrecipIn,Conditions,Clouds,dailyrainin,SoftwareType,DateUTC
2013-03-21 00:02:00,42.1,19.5,29.58,NNW,338,1.6,1.6,40,0.00,,,0.00,WUHU216HW,2013-03-21 04:02:00,
2013-03-21 00:07:00,41.4,18.9,29.58,North,0,0.0,1.6,40,0.00,,,0.00,WUHU216HW,2013-03-21 04:07:00,
2013-03-21 00:12:00,40.7,18.7,29.59,NW,315,1.1,1.6,41,0.00,,,0.00,WUHU216HW,2013-03-21 04:12:00,
2013-03-21 00:17:00,40.0,18.6,29.58,West,270,1.1,1.1,42,0.00,,,0.00,WUHU216HW,2013-03-21 04:17:00,
2013-03-21 00:22:00,39.4,18.6,29.58,West,270,1.1,1.1,43,0.00,,,0.00,WUHU216HW,2013-03-21 04:22:00,
2013-03-21 00:27:00,38.5,18.4,29.58,WNW,293,0.9,1.1,44,0.00,,,0.00,WUHU216HW,2013-03-21 04:27:00,
2013-03-21 00:32:00,38.0,17.9,29.58,NNW,338,2.5,2.5,44,0.00,,,0.00,WUHU216HW,2013-03-21 04:32:00,
2013-03-21 00:37:00,37.1,17.1,29.58,NNW,338,1.6,2.5,44,0.00,,,0.00,WUHU216HW,2013-03-21 04:37:00,
2013-03-21 00:42:00,36.4,16.4,29.58,West,270,1.8,2.0,44,0.00,,,0.00,WUHU216HW,2013-03-21 04:42:00,
2013-03-21 00:48:00,36.2,16.7,29.58,West,270,0.7,2.0,45,0.00,,,0.00,WUHU216HW,2013-03-21 04:48:00,
2013-03-21 00:53:00,35.8,15.9,29.58,WSW,248,0.9,1.8,44,0.00,,,0.00,WUHU216HW,2013-03-21 04:53:00,
2013-03-21 00:58:00,35.5,16.7,29.58,NW,315,1.8,1.8,46,0.00,,,0.00,WUHU216HW,2013-03-21 04:58:00,
2013-03-21 01:03:00,34.7,16.5,29.58,NW,315,2.7,2.7,47,0.00,,,0.00,WUHU216HW,2013-03-21 05:03:00,
2013-03-21 01:08:00,34.2,15.9,29.57,North,0,0.0,2.7,47,0.00,,,0.00,WUHU216HW,2013-03-21 05:08:00,
2013-03-21 01:14:00,34.2,15.9,29.56,North,0,0.0,2.7,47,0.00,,,0.00,WUHU216HW,2013-03-21 05:14:00,
2013-03-21 01:19:00,33.8,15.6,29.56,West,270,0.9,0.9,47,0.00,,,0.00,WUHU216HW,2013-03-21 05:19:00,
2013-03-21 01:25:00,33.7,15.9,29.56,North,0,2.2,2.2,48,0.00,,,0.00,WUHU216HW,2013-03-21 05:25:00,
2013-03-21 01:30:00,33.1,15.9,29.56,NNW,338,2.5,2.5,49,0.00,,,0.00,WUHU216HW,2013-03-21 05:30:00,
2013-03-21 01:35:00,32.0,15.9,29.56,North,0,2.5,2.5,51,0.00,,,0.00,WUHU216HW,2013-03-21 05:35:00,
2013-03-21 01:40:00,31.9,15.3,29.56,West,270,1.8,2.5,50,0.00,,,0.00,WUHU216HW,2013-03-21 05:40:00,
2013-03-21 01:45:00,31.7,15.1,29.55,WSW,248,1.3,2.5,50,0.00,,,0.00,WUHU216HW,2013-03-21 05:45:00,
2013-03-21 01:50:00,31.7,15.1,29.55,NNW,338,1.3,1.3,50,0.00,,,0.00,WUHU216HW,2013-03-21 05:50:00,
2013-03-21 01:56:00,31.5,15.8,29.55,SW,225,1.8,1.8,52,0.00,,,0.00,WUHU216HW,2013-03-21 05:56:00,
2013-03-21 02:01:00,31.5,15.8,29.55,SW,225,1.8,1.8,52,0.00,,,0.00,WUHU216HW,2013-03-21 06:01:00,
2013-03-21 02:06:00,31.5,15.8,29.55,SW,225,1.8,1.8,52,0.00,,,0.00,WUHU216HW,2013-03-21 06:06:00,
2013-03-21 02:11:00,31.1,15.5,29.54,NE,45,2.0,2.0,52,0.00,,,0.00,WUHU216HW,2013-03-21 06:11:00,
2013-03-21 02:16:00,30.8,15.2,29.55,NNE,23,0.0,2.0,52,0.00,,,0.00,WUHU216HW,2013-03-21 06:16:00,
2013-03-21 02:21:00,30.6,15.0,29.55,North,0,0.0,2.0,52,0.00,,,0.00,WUHU216HW,2013-03-21 06:21:00,
2013-03-21 02:26:00,30.6,15.0,29.55,North,0,0.0,0.0,52,0.00,,,0.00,WUHU216HW,2013-03-21 06:26:00,
2013-03-21 02:32:00,30.4,14.9,29.54,North,0,0.0,0.0,52,0.00,,,0.00,WUHU216HW,2013-03-21 06:32:00,
2013-03-21 02:37:00,30.2,14.7,29.54,North,0,0.0,0.0,52,0.00,,,0.00,WUHU216HW,2013-03-21 06:37:00,
2013-03-21 02:42:00,29.9,14.4,29.54,North,0,0.0,0.0,52,0.00,,,0.00,WUHU216HW,2013-03-21 06:42:00,
2013-03-21 02:47:00,29.3,14.3,29.54,North,0,0.0,0.0,53,0.00,,,0.00,WUHU216HW,2013-03-21 06:47:00,
2013-03-21 02:52:00,29.0,14.0,29.54,North,0,0.0,0.0,53,0.00,,,0.00,WUHU216HW,2013-03-21 06:52:00,
2013-03-21 02:57:00,28.8,13.8,29.54,North,0,0.0,0.0,53,0.00,,,0.00,WUHU216HW,2013-03-21 06:57:00,
2013-03-21 03:02:00,28.6,13.7,29.54,North,0,0.0,0.0,53,0.00,,,0.00,WUHU216HW,2013-03-21 07:02:00,
2013-03-21 03:07:00,28.4,13.5,29.54,North,0,0.0,0.0,53,0.00,,,0.00,WUHU216HW,2013-03-21 07:07:00,
2013-03-21 03:12:00,28.4,13.9,29.54,North,0,0.0,0.0,54,0.00,,,0.00,WUHU216HW,2013-03-21 07:12:00,
2013-03-21 03:17:00,28.3,13.7,29.54,North,0,0.0,0.0,54,0.00,,,0.00,WUHU216HW,2013-03-21 07:17:00,
2013-03-21 03:22:00,28.1,13.5,29.53,North,0,0.0,0.0,54,0.00,,,0.00,WUHU216HW,2013-03-21 07:22:00,
2013-03-21 03:27:00,28.1,13.5,29.53,North,0,0.0,0.0,54,0.00,,,0.00,WUHU216HW,2013-03-21 07:27:00,
2013-03-21 03:32:00,27.9,13.3,29.53,North,0,0.0,0.0,54,0.00,,,0.00,WUHU216HW,2013-03-21 07:32:00,
2013-03-21 03:37:00,27.7,13.6,29.53,North,0,0.0,0.0,55,0.00,,,0.00,WUHU216HW,2013-03-21 07:37:00,
2013-03-21 03:43:00,27.7,13.6,29.53,NW,315,0.4,0.4,55,0.00,,,0.00,WUHU216HW,2013-03-21 07:43:00,
2013-03-21 03:48:00,27.7,14.1,29.53,NNW,338,0.9,0.9,56,0.00,,,0.00,WUHU216HW,2013-03-21 07:48:00,
2013-03-21 03:53:00,27.4,16.0,29.56,NNW,338,12.1,12.1,62,0.00,,,0.00,WUHU216HW,2013-03-21 07:53:00,
2013-03-21 03:58:00,27.5,16.2,29.55,WSW,248,0.9,12.1,62,0.00,,,0.00,WUHU216HW,2013-03-21 07:58:00,
2013-03-21 04:03:00,27.9,17.3,29.56,West,270,4.7,8.9,64,0.00,,,0.00,WUHU216HW,2013-03-21 08:03:00,
2013-03-21 04:11:00,28.4,17.8,29.56,NW,315,2.2,5.1,64,0.00,,,0.00,WUHU216HW,2013-03-21 08:11:00,
2013-03-21 04:16:00,29.0,18.6,29.56,NW,315,2.2,3.6,65,0.00,,,0.00,WUHU216HW,2013-03-21 08:16:00,
2013-03-21 04:21:00,31.0,20.2,29.56,NNW,338,3.4,3.4,64,0.00,,,0.00,WUHU216HW,2013-03-21 08:21:00,
2013-03-21 04:26:00,31.7,20.2,29.57,NW,315,0.4,3.4,62,0.00,,,0.00,WUHU216HW,2013-03-21 08:26:00,
2013-03-21 04:31:00,31.7,20.2,29.57,NW,315,0.4,2.7,62,0.00,,,0.00,WUHU216HW,2013-03-21 08:31:00,
2013-03-21 04:36:00,32.4,21.3,29.57,SSE,158,0.0,3.8,63,0.00,,,0.00,WUHU216HW,2013-03-21 08:36:00,
2013-03-21 04:41:00,32.2,20.7,29.57,SE,135,1.8,3.8,62,0.00,,,0.00,WUHU216HW,2013-03-21 08:41:00,
2013-03-21 04:47:00,32.2,20.7,29.57,SSE,158,2.5,2.7,62,0.00,,,0.00,WUHU216HW,2013-03-21 08:47:00,
2013-03-21 04:52:00,32.0,20.5,29.58,North,0,0.0,2.7,62,0.00,,,0.00,WUHU216HW,2013-03-21 08:52:00,
2013-03-21 04:57:00,32.2,21.1,29.58,South,180,3.6,3.6,63,0.00,,,0.00,WUHU216HW,2013-03-21 08:57:00,
2013-03-21 05:02:00,32.6,21.7,29.58,WSW,248,0.2,3.6,64,0.00,,,0.00,WUHU216HW,2013-03-21 09:02:00,
2013-03-21 05:07:00,32.6,21.7,29.58,WSW,248,0.2,2.5,64,0.00,,,0.00,WUHU216HW,2013-03-21 09:07:00,
2013-03-21 05:12:00,32.6,21.7,29.58,WSW,248,0.2,0.2,64,0.00,,,0.00,WUHU216HW,2013-03-21 09:12:00,
2013-03-21 05:17:00,32.6,21.7,29.58,WSW,248,0.2,0.2,64,0.00,,,0.00,WUHU216HW,2013-03-21 09:17:00,
2013-03-21 05:22:00,32.6,21.7,29.58,WSW,248,0.2,0.2,64,0.00,,,0.00,WUHU216HW,2013-03-21 09:22:00,
2013-03-21 06:28:00,41.4,23.6,29.62,WSW,248,2.7,5.4,49,0.00,,,0.00,WUHU216HW,2013-03-21 10:28:00,
2013-03-21 06:34:00,41.2,23.9,29.62,SW,225,7.6,7.6,50,0.00,,,0.00,WUHU216HW,2013-03-21 10:34:00,
2013-03-21 06:39:00,41.0,23.8,29.62,West,270,1.1,7.6,50,0.00,,,0.00,WUHU216HW,2013-03-21 10:39:00,
2013-03-21 06:44:00,40.9,23.6,29.63,WSW,248,0.4,3.4,50,0.00,,,0.00,WUHU216HW,2013-03-21 10:44:00,
2013-03-21 06:49:00,40.7,23.4,29.63,WSW,248,1.1,2.9,50,0.00,,,0.00,WUHU216HW,2013-03-21 10:49:00,
2013-03-21 06:54:00,40.5,23.8,29.62,SW,225,1.1,2.9,51,0.00,,,0.00,WUHU216HW,2013-03-21 10:54:00,
2013-03-21 06:59:00,40.5,23.8,29.62,SSW,203,3.4,4.5,51,0.00,,,0.00,WUHU216HW,2013-03-21 10:59:00,
2013-03-21 07:04:00,40.3,23.6,29.63,SW,225,0.0,4.5,51,0.00,,,0.00,WUHU216HW,2013-03-21 11:04:00,
2013-03-21 07:09:00,40.5,24.1,29.63,WNW,293,2.0,2.0,52,0.00,,,0.00,WUHU216HW,2013-03-21 11:09:00,
2013-03-21 07:14:00,40.7,23.9,29.63,WNW,293,4.5,4.5,51,0.00,,,0.00,WUHU216HW,2013-03-21 11:14:00,
2013-03-21 07:19:00,41.2,23.9,29.63,North,0,13.4,13.4,50,0.00,,,0.00,WUHU216HW,2013-03-21 11:19:00,
2013-03-21 07:24:00,41.8,26.3,29.64,North,0,13.4,13.4,54,0.00,,,0.00,WUHU216HW,2013-03-21 11:24:00,
2013-03-21 07:29:00,41.6,26.1,29.64,North,0,0.0,13.4,54,0.00,,,0.00,WUHU216HW,2013-03-21 11:29:00,
2013-03-21 07:34:00,40.3,28.7,29.65,North,0,0.0,13.4,63,0.00,,,0.00,WUHU216HW,2013-03-21 11:34:00,
2013-03-21 07:39:00,40.1,28.9,29.65,North,0,0.0,12.3,64,0.00,,,0.00,WUHU216HW,2013-03-21 11:39:00,
2013-03-21 07:45:00,39.2,29.1,29.65,West,270,8.3,8.3,67,0.00,,,0.00,WUHU216HW,2013-03-21 11:45:00,
2013-03-21 07:50:00,38.9,30.2,29.65,North,0,0.0,8.3,71,0.00,,,0.00,WUHU216HW,2013-03-21 11:50:00,
2013-03-21 07:55:00,38.3,31.1,29.65,North,0,0.0,8.3,75,0.00,,,0.00,WUHU216HW,2013-03-21 11:55:00,
2013-03-21 08:00:00,37.4,30.9,29.65,NNW,338,13.2,13.2,77,0.00,,,0.00,WUHU216HW,2013-03-21 12:00:00,
2013-03-21 08:05:00,36.5,31.0,29.66,NW,315,12.1,19.7,80,0.00,,,0.00,WUHU216HW,2013-03-21 12:05:00,
2013-03-21 08:10:00,36.4,31.1,29.66,NNW,338,16.1,19.7,81,0.00,,,0.00,WUHU216HW,2013-03-21 12:10:00,
2013-03-21 08:15:00,36.2,30.9,29.66,NW,315,6.0,16.1,81,0.00,,,0.00,WUHU216HW,2013-03-21 12:15:00,
2013-03-21 08:20:00,36.0,31.0,29.66,NNW,338,7.4,14.5,82,0.00,,,0.00,WUHU216HW,2013-03-21 12:20:00,
2013-03-21 08:25:00,36.0,30.7,29.66,NW,315,6.0,10.5,81,0.00,,,0.00,WUHU216HW,2013-03-21 12:25:00,
2013-03-21 08:30:00,36.0,31.0,29.66,North,0,6.0,7.6,82,0.00,,,0.00,WUHU216HW,2013-03-21 12:30:00,
2013-03-21 08:35:00,36.0,30.7,29.66,North,0,5.8,8.1,81,0.00,,,0.00,WUHU216HW,2013-03-21 12:35:00,
2013-03-21 08:40:00,36.2,30.2,29.66,NNW,338,1.3,8.1,79,0.00,,,0.00,WUHU216HW,2013-03-21 12:40:00,
2013-03-21 08:46:00,36.2,30.0,29.66,SW,225,4.9,4.9,78,0.00,,,0.00,WUHU216HW,2013-03-21 12:46:00,
2013-03-21 08:51:00,36.2,29.4,29.67,SW,225,0.9,4.9,76,0.00,,,0.00,WUHU216HW,2013-03-21 12:51:00,
2013-03-21 08:56:00,36.2,29.4,29.67,SSW,203,2.5,3.4,76,0.00,,,0.00,WUHU216HW,2013-03-21 12:56:00,
2013-03-21 09:01:00,36.2,29.4,29.68,West,270,2.0,3.4,76,0.00,,,0.00,WUHU216HW,2013-03-21 13:01:00,
2013-03-21 09:06:00,36.2,29.4,29.68,SW,225,4.7,4.7,76,0.00,,,0.00,WUHU216HW,2013-03-21 13:06:00,
2013-03-21 09:11:00,36.4,29.5,29.68,NNW,338,1.3,4.7,76,0.00,,,0.00,WUHU216HW,2013-03-21 13:11:00,
2013-03-21 09:17:00,36.7,29.9,29.68,North,0,0.0,2.7,76,0.00,,,0.00,WUHU216HW,2013-03-21 13:17:00,
2013-03-21 09:22:00,36.9,30.3,29.68,NNW,338,4.9,4.9,77,0.00,,,0.00,WUHU216HW,2013-03-21 13:22:00,
2013-03-21 09:27:00,36.9,30.3,29.68,NNW,338,4.9,4.9,77,0.00,,,0.00,WUHU216HW,2013-03-21 13:27:00,
2013-03-21 09:32:00,36.9,30.3,29.68,NNW,338,4.9,4.9,77,0.00,,,0.00,WUHU216HW,2013-03-21 13:32:00,
2013-03-21 09:37:00,37.4,30.6,29.68,NNW,338,8.7,8.7,76,0.00,,,0.00,WUHU216HW,2013-03-21 13:37:00,
2013-03-21 09:42:00,37.4,31.2,29.69,North,0,10.5,11.0,78,0.00,,,0.00,WUHU216HW,2013-03-21 13:42:00,
2013-03-21 09:47:00,37.1,31.5,29.69,North,0,10.5,11.6,80,0.00,,,0.00,WUHU216HW,2013-03-21 13:47:00,
2013-03-21 09:52:00,36.7,31.4,29.69,North,0,4.3,11.6,81,0.00,,,0.00,WUHU216HW,2013-03-21 13:52:00,
2013-03-21 09:57:00,36.4,31.1,29.69,NNE,23,3.8,11.4,81,0.00,,,0.00,WUHU216HW,2013-03-21 13:57:00,
2013-03-21 10:02:00,36.4,31.1,29.69,NNE,23,8.5,8.5,81,0.00,,,0.00,WUHU216HW,2013-03-21 14:02:00,
2013-03-21 10:07:00,36.4,31.7,29.69,ENE,68,5.8,8.9,83,0.00,,,0.00,WUHU216HW,2013-03-21 14:07:00,
2013-03-21 10:13:00,36.4,32.0,29.68,NNE,23,7.4,8.9,84,0.00,,,0.00,WUHU216HW,2013-03-21 14:13:00,
2013-03-21 10:18:00,36.0,31.6,29.69,NE,45,6.9,7.4,84,0.00,,,0.00,WUHU216HW,2013-03-21 14:18:00,
2013-03-21 10:23:00,36.0,31.6,29.69,NE,45,5.6,7.6,84,0.00,,,0.00,WUHU216HW,2013-03-21 14:23:00,
2013-03-21 10:28:00,36.0,31.9,29.69,ENE,68,4.5,7.6,85,0.00,,,0.00,WUHU216HW,2013-03-21 14:28:00,
2013-03-21 10:33:00,36.0,31.6,29.69,ENE,68,4.5,6.7,84,0.00,,,0.00,WUHU216HW,2013-03-21 14:33:00,
2013-03-21 10:38:00,36.2,31.8,29.69,NE,45,2.9,4.5,84,0.00,,,0.00,WUHU216HW,2013-03-21 14:38:00,
2013-03-21 10:43:00,36.2,31.8,29.69,ENE,68,0.2,4.5,84,0.00,,,0.00,WUHU216HW,2013-03-21 14:43:00,
2013-03-21 10:48:00,36.4,31.3,29.70,South,180,1.3,2.9,82,0.00,,,0.00,WUHU216HW,2013-03-21 14:48:00,
2013-03-21 10:53:00,36.4,31.1,29.70,SSW,203,2.9,4.0,81,0.00,,,0.00,WUHU216HW,2013-03-21 14:53:00,
2013-03-21 10:58:00,36.4,31.1,29.70,SSW,203,2.9,4.0,81,0.00,,,0.00,WUHU216HW,2013-03-21 14:58:00,
2013-03-21 11:04:00,36.2,31.1,29.69,SE,135,1.6,4.3,82,0.00,,,0.00,WUHU216HW,2013-03-21 15:04:00,
2013-03-21 11:09:00,36.2,31.1,29.69,ESE,113,1.1,4.3,82,0.00,,,0.00,WUHU216HW,2013-03-21 15:09:00,
2013-03-21 11:14:00,36.2,31.1,29.69,ESE,113,1.1,1.1,82,0.00,,,0.00,WUHU216HW,2013-03-21 15:14:00,
2013-03-21 11:19:00,36.5,31.2,29.70,North,0,0.0,1.1,81,0.00,,,0.00,WUHU216HW,2013-03-21 15:19:00,
2013-03-21 11:24:00,36.7,31.1,29.69,SSE,158,0.9,2.5,80,0.00,,,0.00,WUHU216HW,2013-03-21 15:24:00,
2013-03-21 11:29:00,36.7,31.1,29.69,SSE,158,0.9,2.5,80,0.00,,,0.00,WUHU216HW,2013-03-21 15:29:00,
2013-03-21 11:34:00,36.7,31.1,29.70,SSE,158,0.9,0.9,80,0.00,,,0.00,WUHU216HW,2013-03-21 15:34:00,
2013-03-21 11:39:00,36.7,31.1,29.70,SSE,158,0.9,0.9,80,0.00,,,0.00,WUHU216HW,2013-03-21 15:39:00,
2013-03-21 11:44:00,36.7,31.1,29.70,SSE,158,0.9,0.9,80,0.00,,,0.00,WUHU216HW,2013-03-21 15:44:00,
2013-03-21 13:52:00,43.4,17.3,29.72,NNW,338,10.1,14.3,35,0.00,,,0.00,WUHU216HW,2013-03-21 17:52:00,
2013-03-21 13:57:00,43.4,16.0,29.72,NW,315,12.1,14.3,33,0.00,,,0.00,WUHU216HW,2013-03-21 17:57:00,
2013-03-21 14:02:00,43.4,16.0,29.72,NNW,338,15.4,15.7,33,0.00,,,0.00,WUHU216HW,2013-03-21 18:02:00,
2013-03-21 14:07:00,43.4,16.0,29.71,NW,315,15.2,15.7,33,0.00,,,0.00,WUHU216HW,2013-03-21 18:07:00,
2013-03-21 14:12:00,43.6,16.1,29.71,NW,315,11.4,15.2,33,0.00,,,0.00,WUHU216HW,2013-03-21 18:12:00,
2013-03-21 14:17:00,43.6,15.5,29.71,NNW,338,13.4,15.0,32,0.00,,,0.00,WUHU216HW,2013-03-21 18:17:00,
2013-03-21 14:23:00,43.6,15.5,29.71,NW,315,6.7,15.0,32,0.00,,,0.00,WUHU216HW,2013-03-21 18:23:00,
2013-03-21 14:28:00,43.9,15.9,29.71,NW,315,5.4,13.4,32,0.00,,,0.00,WUHU216HW,2013-03-21 18:28:00,
2013-03-21 14:33:00,43.9,15.9,29.71,NNW,338,16.1,16.6,32,0.00,,,0.00,WUHU216HW,2013-03-21 18:33:00,
2013-03-21 14:38:00,43.9,15.1,29.71,NNW,338,17.0,17.0,31,0.00,,,0.00,WUHU216HW,2013-03-21 18:38:00,
2013-03-21 14:43:00,43.9,15.1,29.72,WNW,293,10.3,17.0,31,0.00,,,0.00,WUHU216HW,2013-03-21 18:43:00,
2013-03-21 14:48:00,44.1,15.9,29.72,SW,225,8.7,17.7,32,0.00,,,0.00,WUHU216HW,2013-03-21 18:48:00,
2013-03-21 14:53:00,44.1,15.3,29.72,NW,315,10.7,17.7,31,0.00,,,0.00,WUHU216HW,2013-03-21 18:53:00,
2013-03-21 14:58:00,44.3,15.5,29.72,NW,315,6.3,20.1,31,0.00,,,0.00,WUHU216HW,2013-03-21 18:58:00,
2013-03-21 15:03:00,44.5,15.7,29.72,NW,315,7.4,20.1,31,0.00,,,0.00,WUHU216HW,2013-03-21 19:03:00,
2013-03-21 15:08:00,44.8,15.9,29.72,NNW,338,13.6,13.6,31,0.00,,,0.00,WUHU216HW,2013-03-21 19:08:00,
2013-03-21 15:13:00,45.0,15.5,29.72,NNW,338,10.5,15.7,30,0.00,,,0.00,WUHU216HW,2013-03-21 19:13:00,
2013-03-21 15:18:00,45.2,15.6,29.73,NNW,338,14.1,16.1,30,0.00,,,0.00,WUHU216HW,2013-03-21 19:18:00,
2013-03-21 15:23:00,45.2,15.6,29.72,NNW,338,12.3,16.8,30,0.00,,,0.00,WUHU216HW,2013-03-21 19:23:00,
2013-03-21 15:28:00,45.5,15.9,29.73,NNW,338,11.4,16.8,30,0.00,,,0.00,WUHU216HW,2013-03-21 19:28:00,
2013-03-21 15:34:00,45.5,15.9,29.73,NW,315,11.6,16.3,30,0.00,,,0.00,WUHU216HW,2013-03-21 19:34:00,
2013-03-21 15:39:00,46.1,15.5,29.72,NNW,338,5.6,11.6,29,0.00,,,0.00,WUHU216HW,2013-03-21 19:39:00,
2013-03-21 15:44:00,46.4,15.9,29.72,NW,315,9.2,14.3,29,0.00,,,0.00,WUHU216HW,2013-03-21 19:44:00,
2013-03-21 15:49:00,46.8,16.1,29.72,NNW,338,10.5,14.3,29,0.00,,,0.00,WUHU216HW,2013-03-21 19:49:00,
2013-03-21 15:54:00,47.2,15.6,29.72,NNW,338,15.4,15.4,28,0.00,,,0.00,WUHU216HW,2013-03-21 19:54:00,
2013-03-21 15:59:00,47.3,14.8,29.71,North,0,0.0,15.4,27,0.00,,,0.00,WUHU216HW,2013-03-21 19:59:00,
2013-03-21 16:04:00,47.9,15.2,29.71,NNW,338,16.6,16.6,27,0.00,,,0.00,WUHU216HW,2013-03-21 20:04:00,
2013-03-21 16:09:00,48.2,15.6,29.71,North,0,0.0,16.6,27,0.00,,,0.00,WUHU216HW,2013-03-21 20:09:00,
2013-03-21 16:14:00,48.2,15.6,29.71,North,0,0.0,16.6,27,0.00,,,0.00,WUHU216HW,2013-03-21 20:14:00,
2013-03-21 16:19:00,48.2,15.6,29.71,NNW,338,16.1,16.1,27,0.00,,,0.00,WUHU216HW,2013-03-21 20:19:00,
2013-03-21 16:24:00,48.2,15.6,29.71,NNW,338,16.1,16.1,27,0.00,,,0.00,WUHU216HW,2013-03-21 20:24:00,
2013-03-21 16:29:00,47.5,13.1,29.71,North,0,14.1,16.1,25,0.00,,,0.00,WUHU216HW,2013-03-21 20:29:00,
2013-03-21 16:34:00,47.3,14.8,29.71,North,0,6.3,16.1,27,0.00,,,0.00,WUHU216HW,2013-03-21 20:34:00,
2013-03-21 16:39:00,47.5,14.1,29.71,West,270,10.5,15.4,26,0.00,,,0.00,WUHU216HW,2013-03-21 20:39:00,
2013-03-21 16:44:00,47.5,14.1,29.71,West,270,10.5,13.6,26,0.00,,,0.00,WUHU216HW,2013-03-21 20:44:00,
2013-03-21 16:50:00,47.5,14.1,29.71,West,270,10.5,10.5,26,0.00,,,0.00,WUHU216HW,2013-03-21 20:50:00,
2013-03-21 16:55:00,47.9,13.4,29.71,North,0,7.2,10.5,25,0.00,,,0.00,WUHU216HW,2013-03-21 20:55:00,
2013-03-21 17:00:00,47.9,13.4,29.71,North,0,9.2,9.2,25,0.00,,,0.00,WUHU216HW,2013-03-21 21:00:00,
2013-03-21 17:05:00,47.9,13.4,29.71,North,0,9.2,9.2,25,0.00,,,0.00,WUHU216HW,2013-03-21 21:05:00,
2013-03-21 17:10:00,47.9,13.4,29.71,North,0,9.2,9.2,25,0.00,,,0.00,WUHU216HW,2013-03-21 21:10:00,
2013-03-21 17:15:00,47.9,13.4,29.71,North,0,9.2,9.2,25,0.00,,,0.00,WUHU216HW,2013-03-21 21:15:00,
2013-03-21 18:23:00,49.0,11.5,29.73,NNW,338,15.4,15.4,22,0.00,,,0.00,WUHU216HW,2013-03-21 22:23:00,
2013-03-21 18:29:00,49.0,12.4,29.73,NW,315,9.2,15.4,23,0.00,,,0.00,WUHU216HW,2013-03-21 22:29:00,
2013-03-21 18:34:00,49.0,13.3,29.73,NNW,338,13.9,15.7,24,0.00,,,0.00,WUHU216HW,2013-03-21 22:34:00,
2013-03-21 18:39:00,49.0,12.4,29.73,NNW,338,13.9,17.7,23,0.00,,,0.00,WUHU216HW,2013-03-21 22:39:00,
2013-03-21 18:44:00,48.6,12.2,29.73,North,0,13.4,17.7,23,0.00,,,0.00,WUHU216HW,2013-03-21 22:44:00,
2013-03-21 18:49:00,47.9,11.5,29.73,NNW,338,20.6,20.6,23,0.00,,,0.00,WUHU216HW,2013-03-21 22:49:00,
2013-03-21 18:54:00,47.9,12.4,29.74,NNW,338,11.9,20.6,24,0.00,,,0.00,WUHU216HW,2013-03-21 22:54:00,
2013-03-21 18:59:00,47.9,11.5,29.73,NNW,338,10.7,15.2,23,0.00,,,0.00,WUHU216HW,2013-03-21 22:59:00,
2013-03-21 19:04:00,47.9,11.5,29.73,NW,315,7.4,16.3,23,0.00,,,0.00,WUHU216HW,2013-03-21 23:04:00,
2013-03-21 19:09:00,47.9,11.5,29.74,NNW,338,11.4,16.3,23,0.00,,,0.00,WUHU216HW,2013-03-21 23:09:00,
2013-03-21 19:14:00,48.1,11.7,29.74,NNW,338,13.6,16.3,23,0.00,,,0.00,WUHU216HW,2013-03-21 23:14:00,
2013-03-21 19:19:00,47.7,11.3,29.74,NNW,338,9.6,15.7,23,0.00,,,0.00,WUHU216HW,2013-03-21 23:19:00,
2013-03-21 19:24:00,47.9,11.5,29.74,NW,315,14.3,15.7,23,0.00,,,0.00,WUHU216HW,2013-03-21 23:24:00,
2013-03-21 19:29:00,48.1,11.7,29.74,North,0,16.3,21.5,23,0.00,,,0.00,WUHU216HW,2013-03-21 23:29:00,
2013-03-21 19:34:00,47.9,10.6,29.74,NNW,338,13.2,21.5,22,0.00,,,0.00,WUHU216HW,2013-03-21 23:34:00,
2013-03-21 19:40:00,47.5,11.3,29.74,NW,315,18.6,20.4,23,0.00,,,0.00,WUHU216HW,2013-03-21 23:40:00,
2013-03-21 19:45:00,47.5,10.3,29.74,North,0,23.5,23.5,22,0.00,,,0.00,WUHU216HW,2013-03-21 23:45:00,
2013-03-21 19:50:00,47.5,11.3,29.75,NW,315,9.6,23.5,23,0.00,,,0.00,WUHU216HW,2013-03-21 23:50:00,
2013-03-21 19:55:00,47.7,10.5,29.75,WNW,293,8.5,19.7,22,0.00,,,0.00,WUHU216HW,2013-03-21 23:55:00,
2013-03-21 20:00:00,47.2,10.0,29.75,NNW,338,19.0,21.3,22,0.00,,,0.00,WUHU216HW,2013-03-22 00:00:00,
2013-03-21 20:06:00,47.0,9.8,29.76,NW,315,11.4,21.3,22,0.00,,,0.00,WUHU216HW,2013-03-22 00:06:00,
2013-03-21 20:11:00,46.8,9.7,29.76,NNW,338,17.9,20.4,22,0.00,,,0.00,WUHU216HW,2013-03-22 00:11:00,
2013-03-21 20:16:00,46.8,9.7,29.76,NNW,338,17.9,20.4,22,0.00,,,0.00,WUHU216HW,2013-03-22 00:16:00,
2013-03-21 20:21:00,46.8,9.7,29.76,NNW,338,17.9,17.9,22,0.00,,,0.00,WUHU216HW,2013-03-22 00:21:00,
2013-03-21 20:26:00,45.7,7.9,29.77,NW,315,9.8,17.9,21,0.00,,,0.00,WUHU216HW,2013-03-22 00:26:00,
2013-03-21 20:31:00,45.4,7.6,29.77,NNW,338,13.2,19.9,21,0.00,,,0.00,WUHU216HW,2013-03-22 00:31:00,
2013-03-21 20:36:00,45.2,7.5,29.77,NNW,338,19.7,19.9,21,0.00,,,0.00,WUHU216HW,2013-03-22 00:36:00,
2013-03-21 20:41:00,45.2,7.5,29.77,NNW,338,19.7,19.7,21,0.00,,,0.00,WUHU216HW,2013-03-22 00:41:00,
2013-03-21 20:47:00,44.8,8.1,29.77,NNW,338,12.8,19.7,22,0.00,,,0.00,WUHU216HW,2013-03-22 00:47:00,
2013-03-21 20:52:00,44.8,8.1,29.77,NW,315,15.4,19.7,22,0.00,,,0.00,WUHU216HW,2013-03-22 00:52:00,
2013-03-21 20:57:00,44.8,8.1,29.78,NW,315,15.4,15.4,22,0.00,,,0.00,WUHU216HW,2013-03-22 00:57:00,
2013-03-21 21:02:00,44.8,8.1,29.78,NW,315,15.4,15.4,22,0.00,,,0.00,WUHU216HW,2013-03-22 01:02:00,
2013-03-21 21:07:00,44.8,8.1,29.78,NW,315,15.4,15.4,22,0.00,,,0.00,WUHU216HW,2013-03-22 01:07:00,
2013-03-21 22:15:00,38.2,8.6,29.81,NNW,338,4.9,4.9,29,0.00,,,0.00,WUHU216HW,2013-03-22 02:15:00,
2013-03-21 22:20:00,38.2,8.6,29.81,NNW,338,4.9,4.9,29,0.00,,,0.00,WUHU216HW,2013-03-22 02:20:00,
2013-03-21 22:25:00,38.2,8.6,29.81,NNW,338,4.9,4.9,29,0.00,,,0.00,WUHU216HW,2013-03-22 02:25:00,
2013-03-21 22:30:00,38.2,8.6,29.81,NNW,338,4.9,4.9,29,0.00,,,0.00,WUHU216HW,2013-03-22 02:30:00,
2013-03-21 23:34:00,34.2,9.2,29.84,WNW,293,1.6,1.6,35,0.00,,,0.00,WUHU216HW,2013-03-22 03:34:00,
2013-03-21 23:39:00,33.8,8.9,29.84,WNW,293,7.2,7.2,35,0.00,,,0.00,WUHU216HW,2013-03-22 03:39:00,
2013-03-21 23:44:00,33.3,9.1,29.84,NW,315,2.9,7.2,36,0.00,,,0.00,WUHU216HW,2013-03-22 03:44:00,
2013-03-21 23:49:00,32.9,8.7,29.84,SW,225,3.1,6.7,36,0.00,,,0.00,WUHU216HW,2013-03-22 03:49:00,
2013-03-21 23:54:00,32.6,9.0,29.85,NW,315,4.7,6.7,37,0.00,,,0.00,WUHU216HW,2013-03-22 03:54:00,
2013-03-21 23:59:00,32.2,9.4,29.85,NW,315,4.3,6.3,38,0.00,,,0.00,WUHU216HW,2013-03-22 03:59:00,